sensor_id;sensor_type;location;lat;lon;timestamp;temperature;humidity
4501;DHT22;2263;54.654;9.410;2022-11-09T00:00:49;12.10;90.40
4501;DHT22;2263;54.654;9.410;2022-11-09T00:03:17;12.10;90.40
4501;DHT22;2263;54.654;9.410;2022-11-09T00:05:56;12.10;90.50
4501;DHT22;2263;54.654;9.410;2022-11-09T00:08:24;12.10;90.40
4501;DHT22;2263;54.654;9.410;2022-11-09T00:10:51;12.10;90.50
4501;DHT22;2263;54.654;9.410;2022-11-09T00:13:19;12.10;90.50
4501;DHT22;2263;54.654;9.410;2022-11-09T00:15:46;12.10;90.50
4501;DHT22;2263;54.654;9.410;2022-11-09T00:18:19;12.10;90.50
4501;DHT22;2263;54.654;9.410;2022-11-09T00:20:46;12.10;90.50
4501;DHT22;2263;54.654;9.410;2022-11-09T00:23:15;12.10;90.50
4501;DHT22;2263;54.654;9.410;2022-11-09T00:25:43;12.10;90.50
4501;DHT22;2263;54.654;9.410;2022-11-09T00:28:10;12.10;90.60
4501;DHT22;2263;54.654;9.410;2022-11-09T00:30:37;12.10;90.60
4501;DHT22;2263;54.654;9.410;2022-11-09T00:33:05;12.10;90.60
4501;DHT22;2263;54.654;9.410;2022-11-09T00:35:32;12.10;90.60
4501;DHT22;2263;54.654;9.410;2022-11-09T00:37:59;12.10;90.70
4501;DHT22;2263;54.654;9.410;2022-11-09T00:40:26;12.10;90.70
4501;DHT22;2263;54.654;9.410;2022-11-09T00:42:54;12.10;90.60
4501;DHT22;2263;54.654;9.410;2022-11-09T00:45:21;12.10;90.70
4501;DHT22;2263;54.654;9.410;2022-11-09T00:47:48;12.10;90.70
4501;DHT22;2263;54.654;9.410;2022-11-09T00:50:15;12.10;90.70
4501;DHT22;2263;54.654;9.410;2022-11-09T00:52:43;12.10;90.80
4501;DHT22;2263;54.654;9.410;2022-11-09T00:55:10;12.10;90.80
4501;DHT22;2263;54.654;9.410;2022-11-09T00:57:37;12.10;90.80
4501;DHT22;2263;54.654;9.410;2022-11-09T01:00:05;12.10;90.80
4501;DHT22;2263;54.654;9.410;2022-11-09T01:02:32;12.10;90.80
4501;DHT22;2263;54.654;9.410;2022-11-09T01:04:59;12.10;90.80
4501;DHT22;2263;54.654;9.410;2022-11-09T01:07:26;12.10;90.90
4501;DHT22;2263;54.654;9.410;2022-11-09T01:09:54;12.10;90.90
4501;DHT22;2263;54.654;9.410;2022-11-09T01:12:21;12.10;90.90
4501;DHT22;2263;54.654;9.410;2022-11-09T01:14:48;12.10;90.90
4501;DHT22;2263;54.654;9.410;2022-11-09T01:17:15;12.10;90.90
4501;DHT22;2263;54.654;9.410;2022-11-09T01:19:42;12.10;90.90
4501;DHT22;2263;54.654;9.410;2022-11-09T01:22:09;12.10;91.00
4501;DHT22;2263;54.654;9.410;2022-11-09T01:24:36;12.10;91.00
4501;DHT22;2263;54.654;9.410;2022-11-09T01:27:03;12.10;91.00
4501;DHT22;2263;54.654;9.410;2022-11-09T01:29:31;12.10;91.00
4501;DHT22;2263;54.654;9.410;2022-11-09T01:31:58;12.10;91.10
4501;DHT22;2263;54.654;9.410;2022-11-09T01:34:27;12.10;91.10
4501;DHT22;2263;54.654;9.410;2022-11-09T01:36:54;12.10;91.10
4501;DHT22;2263;54.654;9.410;2022-11-09T01:39:22;12.10;91.10
4501;DHT22;2263;54.654;9.410;2022-11-09T01:41:49;12.10;91.10
4501;DHT22;2263;54.654;9.410;2022-11-09T01:44:18;12.10;91.20
4501;DHT22;2263;54.654;9.410;2022-11-09T01:46:55;12.10;91.20
4501;DHT22;2263;54.654;9.410;2022-11-09T01:52:10;12.10;91.20
4501;DHT22;2263;54.654;9.410;2022-11-09T01:54:42;12.10;91.30
4501;DHT22;2263;54.654;9.410;2022-11-09T01:57:21;12.10;91.30
4501;DHT22;2263;54.654;9.410;2022-11-09T01:59:55;12.10;91.30
4501;DHT22;2263;54.654;9.410;2022-11-09T02:02:24;12.10;91.30
4501;DHT22;2263;54.654;9.410;2022-11-09T02:04:56;12.10;91.30
4501;DHT22;2263;54.654;9.410;2022-11-09T02:07:24;12.10;91.40
4501;DHT22;2263;54.654;9.410;2022-11-09T02:10:02;12.10;91.40
4501;DHT22;2263;54.654;9.410;2022-11-09T02:12:32;12.10;91.40
4501;DHT22;2263;54.654;9.410;2022-11-09T02:15:06;12.10;91.50
4501;DHT22;2263;54.654;9.410;2022-11-09T02:17:35;12.10;91.50
4501;DHT22;2263;54.654;9.410;2022-11-09T02:20:10;12.10;91.50
4501;DHT22;2263;54.654;9.410;2022-11-09T02:22:38;12.10;91.50
4501;DHT22;2263;54.654;9.410;2022-11-09T02:25:09;12.10;91.50
4501;DHT22;2263;54.654;9.410;2022-11-09T02:27:36;12.10;91.50
4501;DHT22;2263;54.654;9.410;2022-11-09T02:30:04;12.10;91.50
4501;DHT22;2263;54.654;9.410;2022-11-09T02:32:32;12.10;91.50
4501;DHT22;2263;54.654;9.410;2022-11-09T02:34:59;12.10;91.60
4501;DHT22;2263;54.654;9.410;2022-11-09T02:40:08;12.10;91.60
4501;DHT22;2263;54.654;9.410;2022-11-09T02:42:36;12.10;91.60
4501;DHT22;2263;54.654;9.410;2022-11-09T02:45:04;12.10;91.60
4501;DHT22;2263;54.654;9.410;2022-11-09T02:47:31;12.10;91.60
4501;DHT22;2263;54.654;9.410;2022-11-09T02:49:58;12.10;91.60
4501;DHT22;2263;54.654;9.410;2022-11-09T02:52:25;12.10;91.60
4501;DHT22;2263;54.654;9.410;2022-11-09T02:54:52;12.10;91.70
4501;DHT22;2263;54.654;9.410;2022-11-09T02:57:19;12.10;91.60
4501;DHT22;2263;54.654;9.410;2022-11-09T02:59:47;12.00;91.60
4501;DHT22;2263;54.654;9.410;2022-11-09T03:02:14;12.10;91.70
4501;DHT22;2263;54.654;9.410;2022-11-09T03:04:41;12.10;91.70
4501;DHT22;2263;54.654;9.410;2022-11-09T03:07:08;12.00;91.70
4501;DHT22;2263;54.654;9.410;2022-11-09T03:09:36;12.00;91.70
4501;DHT22;2263;54.654;9.410;2022-11-09T03:12:03;12.00;91.70
4501;DHT22;2263;54.654;9.410;2022-11-09T03:14:50;12.00;91.80
4501;DHT22;2263;54.654;9.410;2022-11-09T03:17:17;12.00;91.80
4501;DHT22;2263;54.654;9.410;2022-11-09T03:19:44;12.00;91.80
4501;DHT22;2263;54.654;9.410;2022-11-09T03:22:12;12.00;91.80
4501;DHT22;2263;54.654;9.410;2022-11-09T03:24:39;12.00;91.80
4501;DHT22;2263;54.654;9.410;2022-11-09T03:27:06;12.00;91.90
4501;DHT22;2263;54.654;9.410;2022-11-09T03:29:33;12.00;91.90
4501;DHT22;2263;54.654;9.410;2022-11-09T03:32:01;12.00;91.90
4501;DHT22;2263;54.654;9.410;2022-11-09T03:34:28;12.00;91.90
4501;DHT22;2263;54.654;9.410;2022-11-09T03:36:55;12.00;91.90
4501;DHT22;2263;54.654;9.410;2022-11-09T03:39:22;12.00;91.90
4501;DHT22;2263;54.654;9.410;2022-11-09T03:41:49;12.00;91.90
4501;DHT22;2263;54.654;9.410;2022-11-09T03:44:16;12.00;91.90
4501;DHT22;2263;54.654;9.410;2022-11-09T03:46:44;12.00;92.00
4501;DHT22;2263;54.654;9.410;2022-11-09T03:49:11;12.00;92.00
4501;DHT22;2263;54.654;9.410;2022-11-09T03:51:38;12.00;92.00
4501;DHT22;2263;54.654;9.410;2022-11-09T03:54:05;12.00;92.00
4501;DHT22;2263;54.654;9.410;2022-11-09T03:56:32;12.00;92.00
4501;DHT22;2263;54.654;9.410;2022-11-09T03:58:59;12.00;92.00
4501;DHT22;2263;54.654;9.410;2022-11-09T04:01:27;12.00;92.00
4501;DHT22;2263;54.654;9.410;2022-11-09T04:03:54;12.00;92.00
4501;DHT22;2263;54.654;9.410;2022-11-09T04:06:21;12.00;92.00
4501;DHT22;2263;54.654;9.410;2022-11-09T04:08:48;12.00;92.00
4501;DHT22;2263;54.654;9.410;2022-11-09T04:11:17;12.00;92.00
4501;DHT22;2263;54.654;9.410;2022-11-09T04:13:44;12.00;92.00
4501;DHT22;2263;54.654;9.410;2022-11-09T04:16:13;12.00;92.00
4501;DHT22;2263;54.654;9.410;2022-11-09T04:18:40;12.00;92.00
4501;DHT22;2263;54.654;9.410;2022-11-09T04:21:07;12.00;92.00
4501;DHT22;2263;54.654;9.410;2022-11-09T04:23:34;12.00;92.00
4501;DHT22;2263;54.654;9.410;2022-11-09T04:26:01;12.00;92.10
4501;DHT22;2263;54.654;9.410;2022-11-09T04:28:29;12.00;92.10
4501;DHT22;2263;54.654;9.410;2022-11-09T04:30:59;12.00;92.00
4501;DHT22;2263;54.654;9.410;2022-11-09T04:33:27;12.00;92.10
4501;DHT22;2263;54.654;9.410;2022-11-09T04:35:59;12.00;92.10
4501;DHT22;2263;54.654;9.410;2022-11-09T04:38:26;12.00;92.10
4501;DHT22;2263;54.654;9.410;2022-11-09T04:40:53;12.00;92.10
4501;DHT22;2263;54.654;9.410;2022-11-09T04:43:20;12.00;92.20
4501;DHT22;2263;54.654;9.410;2022-11-09T04:45:51;12.00;92.20
4501;DHT22;2263;54.654;9.410;2022-11-09T04:48:18;12.00;92.10
4501;DHT22;2263;54.654;9.410;2022-11-09T04:50:46;12.00;92.10
4501;DHT22;2263;54.654;9.410;2022-11-09T04:53:14;11.90;92.10
4501;DHT22;2263;54.654;9.410;2022-11-09T04:55:44;12.00;92.20
4501;DHT22;2263;54.654;9.410;2022-11-09T04:58:11;11.90;92.20
4501;DHT22;2263;54.654;9.410;2022-11-09T05:00:38;11.90;92.20
4501;DHT22;2263;54.654;9.410;2022-11-09T05:03:06;11.90;92.20
4501;DHT22;2263;54.654;9.410;2022-11-09T05:05:35;11.90;92.20
4501;DHT22;2263;54.654;9.410;2022-11-09T05:08:03;11.90;92.20
4501;DHT22;2263;54.654;9.410;2022-11-09T05:10:31;11.90;92.20
4501;DHT22;2263;54.654;9.410;2022-11-09T05:13:00;11.90;92.20
4501;DHT22;2263;54.654;9.410;2022-11-09T05:15:27;11.90;92.20
4501;DHT22;2263;54.654;9.410;2022-11-09T05:17:55;11.90;92.20
4501;DHT22;2263;54.654;9.410;2022-11-09T05:20:23;11.90;92.20
4501;DHT22;2263;54.654;9.410;2022-11-09T05:22:50;11.90;92.20
4501;DHT22;2263;54.654;9.410;2022-11-09T05:25:36;11.90;92.30
4501;DHT22;2263;54.654;9.410;2022-11-09T05:28:03;11.80;92.20
4501;DHT22;2263;54.654;9.410;2022-11-09T05:30:30;11.90;92.30
4501;DHT22;2263;54.654;9.410;2022-11-09T05:32:57;11.80;92.30
4501;DHT22;2263;54.654;9.410;2022-11-09T05:35:24;11.90;92.30
4501;DHT22;2263;54.654;9.410;2022-11-09T05:37:52;11.90;92.30
4501;DHT22;2263;54.654;9.410;2022-11-09T05:40:19;11.90;92.30
4501;DHT22;2263;54.654;9.410;2022-11-09T05:42:47;11.90;92.30
4501;DHT22;2263;54.654;9.410;2022-11-09T05:45:16;11.90;92.30
4501;DHT22;2263;54.654;9.410;2022-11-09T05:48:03;11.90;92.30
4501;DHT22;2263;54.654;9.410;2022-11-09T05:50:31;11.80;92.30
4501;DHT22;2263;54.654;9.410;2022-11-09T05:52:59;11.80;92.30
4501;DHT22;2263;54.654;9.410;2022-11-09T05:55:26;11.80;92.30
4501;DHT22;2263;54.654;9.410;2022-11-09T05:57:54;11.80;92.30
4501;DHT22;2263;54.654;9.410;2022-11-09T06:00:22;11.90;92.50
4501;DHT22;2263;54.654;9.410;2022-11-09T06:02:49;11.90;92.40
4501;DHT22;2263;54.654;9.410;2022-11-09T06:05:16;11.90;92.70
4501;DHT22;2263;54.654;9.410;2022-11-09T06:07:43;11.90;92.40
4501;DHT22;2263;54.654;9.410;2022-11-09T06:10:11;11.90;92.60
4501;DHT22;2263;54.654;9.410;2022-11-09T06:12:38;11.90;92.70
4501;DHT22;2263;54.654;9.410;2022-11-09T06:15:05;12.00;92.80
4501;DHT22;2263;54.654;9.410;2022-11-09T06:17:33;11.90;92.60
4501;DHT22;2263;54.654;9.410;2022-11-09T06:20:00;11.90;92.60
4501;DHT22;2263;54.654;9.410;2022-11-09T06:22:27;12.00;93.00
4501;DHT22;2263;54.654;9.410;2022-11-09T06:24:54;12.00;93.00
4501;DHT22;2263;54.654;9.410;2022-11-09T06:27:21;12.00;92.80
4501;DHT22;2263;54.654;9.410;2022-11-09T06:29:48;12.00;92.70
4501;DHT22;2263;54.654;9.410;2022-11-09T06:32:15;11.90;92.70
4501;DHT22;2263;54.654;9.410;2022-11-09T06:34:42;11.90;92.80
4501;DHT22;2263;54.654;9.410;2022-11-09T06:37:10;11.90;92.80
4501;DHT22;2263;54.654;9.410;2022-11-09T06:39:37;11.90;92.90
4501;DHT22;2263;54.654;9.410;2022-11-09T06:42:04;11.90;92.90
4501;DHT22;2263;54.654;9.410;2022-11-09T06:44:31;11.80;93.00
4501;DHT22;2263;54.654;9.410;2022-11-09T06:46:58;11.80;92.90
4501;DHT22;2263;54.654;9.410;2022-11-09T06:49:25;11.80;92.90
4501;DHT22;2263;54.654;9.410;2022-11-09T06:51:52;11.80;92.90
4501;DHT22;2263;54.654;9.410;2022-11-09T06:54:20;11.80;93.00
4501;DHT22;2263;54.654;9.410;2022-11-09T06:56:47;11.80;93.00
4501;DHT22;2263;54.654;9.410;2022-11-09T06:59:14;11.80;93.00
4501;DHT22;2263;54.654;9.410;2022-11-09T07:01:41;11.80;92.90
4501;DHT22;2263;54.654;9.410;2022-11-09T07:04:12;11.80;92.90
4501;DHT22;2263;54.654;9.410;2022-11-09T07:06:40;11.80;93.00
4501;DHT22;2263;54.654;9.410;2022-11-09T07:09:08;11.90;93.30
4501;DHT22;2263;54.654;9.410;2022-11-09T07:11:36;11.80;93.00
4501;DHT22;2263;54.654;9.410;2022-11-09T07:14:03;11.80;92.90
4501;DHT22;2263;54.654;9.410;2022-11-09T07:16:31;11.80;93.00
4501;DHT22;2263;54.654;9.410;2022-11-09T07:18:58;11.80;92.90
4501;DHT22;2263;54.654;9.410;2022-11-09T07:21:25;11.80;92.80
4501;DHT22;2263;54.654;9.410;2022-11-09T07:23:52;11.80;92.80
4501;DHT22;2263;54.654;9.410;2022-11-09T07:26:20;11.80;92.90
4501;DHT22;2263;54.654;9.410;2022-11-09T07:28:47;11.80;92.90
4501;DHT22;2263;54.654;9.410;2022-11-09T07:31:14;11.80;92.80
4501;DHT22;2263;54.654;9.410;2022-11-09T07:33:41;11.80;92.90
4501;DHT22;2263;54.654;9.410;2022-11-09T07:36:08;11.80;92.80
4501;DHT22;2263;54.654;9.410;2022-11-09T07:38:35;11.80;92.80
4501;DHT22;2263;54.654;9.410;2022-11-09T07:41:02;11.80;92.80
4501;DHT22;2263;54.654;9.410;2022-11-09T07:43:30;11.80;92.80
4501;DHT22;2263;54.654;9.410;2022-11-09T07:45:58;11.80;92.90
4501;DHT22;2263;54.654;9.410;2022-11-09T07:48:28;11.80;92.80
4501;DHT22;2263;54.654;9.410;2022-11-09T07:50:55;11.80;92.80
4501;DHT22;2263;54.654;9.410;2022-11-09T07:53:23;11.80;92.80
4501;DHT22;2263;54.654;9.410;2022-11-09T07:55:57;11.80;93.10
4501;DHT22;2263;54.654;9.410;2022-11-09T07:58:25;11.80;92.80
4501;DHT22;2263;54.654;9.410;2022-11-09T08:00:53;11.80;92.80
4501;DHT22;2263;54.654;9.410;2022-11-09T08:03:21;11.80;92.80
4501;DHT22;2263;54.654;9.410;2022-11-09T08:05:49;11.80;92.80
4501;DHT22;2263;54.654;9.410;2022-11-09T08:08:16;11.80;92.80
4501;DHT22;2263;54.654;9.410;2022-11-09T08:10:44;11.90;92.80
4501;DHT22;2263;54.654;9.410;2022-11-09T08:13:19;11.90;92.80
4501;DHT22;2263;54.654;9.410;2022-11-09T08:15:47;11.90;92.80
4501;DHT22;2263;54.654;9.410;2022-11-09T08:18:17;11.90;92.70
4501;DHT22;2263;54.654;9.410;2022-11-09T08:20:45;11.90;92.80
4501;DHT22;2263;54.654;9.410;2022-11-09T08:23:17;11.90;92.80
4501;DHT22;2263;54.654;9.410;2022-11-09T08:25:44;12.00;92.80
4501;DHT22;2263;54.654;9.410;2022-11-09T08:28:12;12.00;92.80
4501;DHT22;2263;54.654;9.410;2022-11-09T08:30:44;12.00;92.80
4501;DHT22;2263;54.654;9.410;2022-11-09T08:33:11;12.00;92.80
4501;DHT22;2263;54.654;9.410;2022-11-09T08:35:38;12.00;92.80
4501;DHT22;2263;54.654;9.410;2022-11-09T08:38:06;12.10;92.90
4501;DHT22;2263;54.654;9.410;2022-11-09T08:40:33;12.10;92.80
4501;DHT22;2263;54.654;9.410;2022-11-09T08:43:05;12.10;92.90
4501;DHT22;2263;54.654;9.410;2022-11-09T08:45:34;12.10;93.00
4501;DHT22;2263;54.654;9.410;2022-11-09T08:48:03;12.10;92.90
4501;DHT22;2263;54.654;9.410;2022-11-09T08:50:31;12.10;92.90
4501;DHT22;2263;54.654;9.410;2022-11-09T08:53:00;12.10;92.80
4501;DHT22;2263;54.654;9.410;2022-11-09T08:55:28;12.10;92.90
4501;DHT22;2263;54.654;9.410;2022-11-09T08:57:57;12.10;92.90
4501;DHT22;2263;54.654;9.410;2022-11-09T09:00:25;12.10;93.00
4501;DHT22;2263;54.654;9.410;2022-11-09T09:02:52;12.20;93.00
4501;DHT22;2263;54.654;9.410;2022-11-09T09:05:20;12.10;92.90
4501;DHT22;2263;54.654;9.410;2022-11-09T09:07:47;12.20;93.00
4501;DHT22;2263;54.654;9.410;2022-11-09T09:10:15;12.20;93.00
4501;DHT22;2263;54.654;9.410;2022-11-09T09:12:42;12.20;93.00
4501;DHT22;2263;54.654;9.410;2022-11-09T09:15:09;12.20;92.90
4501;DHT22;2263;54.654;9.410;2022-11-09T09:17:36;12.20;92.90
4501;DHT22;2263;54.654;9.410;2022-11-09T09:20:04;12.30;92.90
4501;DHT22;2263;54.654;9.410;2022-11-09T09:22:31;12.30;93.00
4501;DHT22;2263;54.654;9.410;2022-11-09T09:24:59;12.30;93.00
4501;DHT22;2263;54.654;9.410;2022-11-09T09:27:26;12.30;93.00
4501;DHT22;2263;54.654;9.410;2022-11-09T09:29:55;12.30;92.90
4501;DHT22;2263;54.654;9.410;2022-11-09T09:32:23;12.30;93.10
4501;DHT22;2263;54.654;9.410;2022-11-09T09:34:50;12.30;93.10
4501;DHT22;2263;54.654;9.410;2022-11-09T09:37:18;12.30;93.10
4501;DHT22;2263;54.654;9.410;2022-11-09T09:39:45;12.30;93.00
4501;DHT22;2263;54.654;9.410;2022-11-09T09:42:40;12.30;93.10
4501;DHT22;2263;54.654;9.410;2022-11-09T09:45:12;12.30;92.90
4501;DHT22;2263;54.654;9.410;2022-11-09T09:50:32;12.40;93.10
4501;DHT22;2263;54.654;9.410;2022-11-09T09:55:59;12.40;93.20
4501;DHT22;2263;54.654;9.410;2022-11-09T09:58:30;12.40;93.30
4501;DHT22;2263;54.654;9.410;2022-11-09T10:01:14;12.50;93.10
4501;DHT22;2263;54.654;9.410;2022-11-09T10:03:42;12.50;93.00
4501;DHT22;2263;54.654;9.410;2022-11-09T10:06:39;12.50;93.10
4501;DHT22;2263;54.654;9.410;2022-11-09T10:29:36;12.60;92.80
4501;DHT22;2263;54.654;9.410;2022-11-09T10:32:13;12.60;92.80
4501;DHT22;2263;54.654;9.410;2022-11-09T10:34:59;12.60;92.80
4501;DHT22;2263;54.654;9.410;2022-11-09T10:37:39;12.60;92.80
4501;DHT22;2263;54.654;9.410;2022-11-09T10:40:50;12.60;92.90
4501;DHT22;2263;54.654;9.410;2022-11-09T10:43:18;12.60;92.80
4501;DHT22;2263;54.654;9.410;2022-11-09T10:45:45;12.60;92.90
4501;DHT22;2263;54.654;9.410;2022-11-09T10:48:31;12.60;92.90
4501;DHT22;2263;54.654;9.410;2022-11-09T10:50:59;12.60;92.80
4501;DHT22;2263;54.654;9.410;2022-11-09T10:53:28;12.60;92.80
4501;DHT22;2263;54.654;9.410;2022-11-09T10:56:16;12.60;92.80
4501;DHT22;2263;54.654;9.410;2022-11-09T10:58:52;12.60;92.90
4501;DHT22;2263;54.654;9.410;2022-11-09T11:01:21;12.60;92.80
4501;DHT22;2263;54.654;9.410;2022-11-09T11:03:52;12.60;92.80
4501;DHT22;2263;54.654;9.410;2022-11-09T11:08:49;12.60;92.80
4501;DHT22;2263;54.654;9.410;2022-11-09T11:11:29;12.60;92.80
4501;DHT22;2263;54.654;9.410;2022-11-09T11:14:17;12.60;92.80
4501;DHT22;2263;54.654;9.410;2022-11-09T11:16:50;12.60;92.80
4501;DHT22;2263;54.654;9.410;2022-11-09T11:19:34;12.60;92.90
4501;DHT22;2263;54.654;9.410;2022-11-09T11:24:49;12.60;92.80
4501;DHT22;2263;54.654;9.410;2022-11-09T11:30:03;12.60;93.10
4501;DHT22;2263;54.654;9.410;2022-11-09T11:32:32;12.60;92.80
4501;DHT22;2263;54.654;9.410;2022-11-09T11:34:59;12.60;92.80
4501;DHT22;2263;54.654;9.410;2022-11-09T11:40:31;12.60;92.70
4501;DHT22;2263;54.654;9.410;2022-11-09T11:45:57;12.60;92.70
4501;DHT22;2263;54.654;9.410;2022-11-09T11:48:46;12.60;92.70
4501;DHT22;2263;54.654;9.410;2022-11-09T11:57:06;12.70;92.60
4501;DHT22;2263;54.654;9.410;2022-11-09T12:13:58;12.70;92.60
4501;DHT22;2263;54.654;9.410;2022-11-09T12:19:40;12.70;92.60
4501;DHT22;2263;54.654;9.410;2022-11-09T12:22:41;12.70;92.60
4501;DHT22;2263;54.654;9.410;2022-11-09T12:25:23;12.70;92.60
4501;DHT22;2263;54.654;9.410;2022-11-09T12:28:05;12.70;92.60
4501;DHT22;2263;54.654;9.410;2022-11-09T12:36:11;12.70;92.60
4501;DHT22;2263;54.654;9.410;2022-11-09T12:39:04;12.70;92.60
4501;DHT22;2263;54.654;9.410;2022-11-09T12:41:35;12.70;92.60
4501;DHT22;2263;54.654;9.410;2022-11-09T12:44:09;12.70;92.50
4501;DHT22;2263;54.654;9.410;2022-11-09T12:46:50;12.70;92.50
4501;DHT22;2263;54.654;9.410;2022-11-09T12:49:39;12.70;92.50
4501;DHT22;2263;54.654;9.410;2022-11-09T12:52:11;12.70;92.50
4501;DHT22;2263;54.654;9.410;2022-11-09T12:54:41;12.70;92.50
4501;DHT22;2263;54.654;9.410;2022-11-09T12:57:25;12.70;92.50
4501;DHT22;2263;54.654;9.410;2022-11-09T12:59:55;12.70;92.50
4501;DHT22;2263;54.654;9.410;2022-11-09T13:02:27;12.70;92.40
4501;DHT22;2263;54.654;9.410;2022-11-09T13:05:06;12.70;92.40
4501;DHT22;2263;54.654;9.410;2022-11-09T13:07:51;12.70;92.40
4501;DHT22;2263;54.654;9.410;2022-11-09T13:10:27;12.70;92.40
4501;DHT22;2263;54.654;9.410;2022-11-09T13:13:19;12.70;92.40
4501;DHT22;2263;54.654;9.410;2022-11-09T13:16:29;12.80;92.40
4501;DHT22;2263;54.654;9.410;2022-11-09T13:18:58;12.80;92.30
4501;DHT22;2263;54.654;9.410;2022-11-09T13:23:52;12.80;92.30
4501;DHT22;2263;54.654;9.410;2022-11-09T13:29:21;12.80;92.30
4501;DHT22;2263;54.654;9.410;2022-11-09T13:32:17;12.80;92.30
4501;DHT22;2263;54.654;9.410;2022-11-09T13:34:51;12.80;92.20
4501;DHT22;2263;54.654;9.410;2022-11-09T13:45:41;12.80;92.10
4501;DHT22;2263;54.654;9.410;2022-11-09T13:50:54;12.80;92.10
4501;DHT22;2263;54.654;9.410;2022-11-09T13:53:29;12.80;92.20
4501;DHT22;2263;54.654;9.410;2022-11-09T13:55:57;12.80;92.10
4501;DHT22;2263;54.654;9.410;2022-11-09T13:58:32;12.80;92.20
4501;DHT22;2263;54.654;9.410;2022-11-09T14:01:00;12.80;92.10
4501;DHT22;2263;54.654;9.410;2022-11-09T14:03:28;12.80;92.10
4501;DHT22;2263;54.654;9.410;2022-11-09T14:06:00;12.80;92.10
4501;DHT22;2263;54.654;9.410;2022-11-09T14:08:33;12.80;92.10
4501;DHT22;2263;54.654;9.410;2022-11-09T14:11:49;12.80;92.10
4501;DHT22;2263;54.654;9.410;2022-11-09T14:22:56;12.80;92.10
4501;DHT22;2263;54.654;9.410;2022-11-09T14:25:24;12.80;92.10
4501;DHT22;2263;54.654;9.410;2022-11-09T14:27:53;12.80;92.10
4501;DHT22;2263;54.654;9.410;2022-11-09T14:30:27;12.80;92.20
4501;DHT22;2263;54.654;9.410;2022-11-09T14:32:55;12.70;92.10
4501;DHT22;2263;54.654;9.410;2022-11-09T14:37:53;12.70;92.10
4501;DHT22;2263;54.654;9.410;2022-11-09T14:40:26;12.70;92.10
4501;DHT22;2263;54.654;9.410;2022-11-09T14:43:15;12.70;92.10
4501;DHT22;2263;54.654;9.410;2022-11-09T14:45:57;12.70;92.10
4501;DHT22;2263;54.654;9.410;2022-11-09T14:48:25;12.70;92.10
4501;DHT22;2263;54.654;9.410;2022-11-09T14:50:55;12.70;92.10
4501;DHT22;2263;54.654;9.410;2022-11-09T14:53:36;12.70;92.00
4501;DHT22;2263;54.654;9.410;2022-11-09T14:56:05;12.70;92.00
4501;DHT22;2263;54.654;9.410;2022-11-09T14:58:35;12.70;92.10
4501;DHT22;2263;54.654;9.410;2022-11-09T15:07:04;12.70;92.00
4501;DHT22;2263;54.654;9.410;2022-11-09T15:09:46;12.70;92.10
4501;DHT22;2263;54.654;9.410;2022-11-09T15:12:16;12.70;92.10
4501;DHT22;2263;54.654;9.410;2022-11-09T15:14:54;12.70;92.10
4501;DHT22;2263;54.654;9.410;2022-11-09T15:17:44;12.70;92.10
4501;DHT22;2263;54.654;9.410;2022-11-09T15:22:58;12.70;92.00
4501;DHT22;2263;54.654;9.410;2022-11-09T15:25:36;12.70;92.00
4501;DHT22;2263;54.654;9.410;2022-11-09T15:28:23;12.70;92.00
4501;DHT22;2263;54.654;9.410;2022-11-09T15:33:27;12.70;92.00
4501;DHT22;2263;54.654;9.410;2022-11-09T15:35:56;12.70;92.00
4501;DHT22;2263;54.654;9.410;2022-11-09T15:38:40;12.70;92.00
4501;DHT22;2263;54.654;9.410;2022-11-09T15:41:14;12.70;92.00
4501;DHT22;2263;54.654;9.410;2022-11-09T15:43:42;12.70;92.10
4501;DHT22;2263;54.654;9.410;2022-11-09T15:46:15;12.70;92.00
4501;DHT22;2263;54.654;9.410;2022-11-09T15:48:43;12.70;91.90
4501;DHT22;2263;54.654;9.410;2022-11-09T15:51:13;12.60;91.90
4501;DHT22;2263;54.654;9.410;2022-11-09T15:53:41;12.60;91.80
4501;DHT22;2263;54.654;9.410;2022-11-09T15:56:15;12.60;91.90
4501;DHT22;2263;54.654;9.410;2022-11-09T15:58:43;12.60;91.80
4501;DHT22;2263;54.654;9.410;2022-11-09T16:01:12;12.70;91.90
4501;DHT22;2263;54.654;9.410;2022-11-09T16:03:40;12.60;91.80
4501;DHT22;2263;54.654;9.410;2022-11-09T16:06:09;12.60;91.80
4501;DHT22;2263;54.654;9.410;2022-11-09T16:08:36;12.60;91.80
4501;DHT22;2263;54.654;9.410;2022-11-09T16:11:05;12.60;91.80
4501;DHT22;2263;54.654;9.410;2022-11-09T16:13:33;12.60;91.80
4501;DHT22;2263;54.654;9.410;2022-11-09T16:16:02;12.60;91.80
4501;DHT22;2263;54.654;9.410;2022-11-09T16:18:31;12.60;91.80
4501;DHT22;2263;54.654;9.410;2022-11-09T16:21:11;12.60;91.90
4501;DHT22;2263;54.654;9.410;2022-11-09T16:23:38;12.60;91.90
4501;DHT22;2263;54.654;9.410;2022-11-09T16:26:18;12.60;92.00
4501;DHT22;2263;54.654;9.410;2022-11-09T16:28:46;12.60;92.20
4501;DHT22;2263;54.654;9.410;2022-11-09T16:31:13;12.60;92.30
4501;DHT22;2263;54.654;9.410;2022-11-09T16:33:40;12.60;92.40
4501;DHT22;2263;54.654;9.410;2022-11-09T16:36:12;12.60;92.30
4501;DHT22;2263;54.654;9.410;2022-11-09T16:38:42;12.60;92.30
4501;DHT22;2263;54.654;9.410;2022-11-09T16:41:12;12.60;92.60
4501;DHT22;2263;54.654;9.410;2022-11-09T16:43:40;12.50;92.20
4501;DHT22;2263;54.654;9.410;2022-11-09T16:46:12;12.50;92.10
4501;DHT22;2263;54.654;9.410;2022-11-09T16:48:44;12.50;92.10
4501;DHT22;2263;54.654;9.410;2022-11-09T16:51:11;12.50;92.10
4501;DHT22;2263;54.654;9.410;2022-11-09T16:53:38;12.50;92.10
4501;DHT22;2263;54.654;9.410;2022-11-09T16:56:05;12.40;92.10
4501;DHT22;2263;54.654;9.410;2022-11-09T16:58:33;12.40;92.10
4501;DHT22;2263;54.654;9.410;2022-11-09T17:01:00;12.40;92.00
4501;DHT22;2263;54.654;9.410;2022-11-09T17:03:38;12.40;92.00
4501;DHT22;2263;54.654;9.410;2022-11-09T17:06:06;12.40;91.90
4501;DHT22;2263;54.654;9.410;2022-11-09T17:08:38;12.40;91.90
4501;DHT22;2263;54.654;9.410;2022-11-09T17:11:10;12.40;91.90
4501;DHT22;2263;54.654;9.410;2022-11-09T17:13:38;12.40;91.90
4501;DHT22;2263;54.654;9.410;2022-11-09T17:16:09;12.30;91.80
4501;DHT22;2263;54.654;9.410;2022-11-09T17:18:36;12.30;91.80
4501;DHT22;2263;54.654;9.410;2022-11-09T17:21:11;12.30;91.90
4501;DHT22;2263;54.654;9.410;2022-11-09T17:23:40;12.30;91.80
4501;DHT22;2263;54.654;9.410;2022-11-09T17:26:08;12.30;91.80
4501;DHT22;2263;54.654;9.410;2022-11-09T17:28:36;12.30;91.90
4501;DHT22;2263;54.654;9.410;2022-11-09T17:31:20;12.30;91.90
4501;DHT22;2263;54.654;9.410;2022-11-09T17:33:47;12.30;91.80
4501;DHT22;2263;54.654;9.410;2022-11-09T17:36:16;12.30;91.70
4501;DHT22;2263;54.654;9.410;2022-11-09T17:39:04;12.30;91.80
4501;DHT22;2263;54.654;9.410;2022-11-09T17:41:32;12.20;91.70
4501;DHT22;2263;54.654;9.410;2022-11-09T17:44:04;12.20;91.70
4501;DHT22;2263;54.654;9.410;2022-11-09T17:46:31;12.20;91.70
4501;DHT22;2263;54.654;9.410;2022-11-09T17:48:58;12.20;91.70
4501;DHT22;2263;54.654;9.410;2022-11-09T17:51:26;12.20;91.70
4501;DHT22;2263;54.654;9.410;2022-11-09T17:53:53;12.20;91.70
4501;DHT22;2263;54.654;9.410;2022-11-09T17:56:21;12.20;91.80
4501;DHT22;2263;54.654;9.410;2022-11-09T17:58:48;12.20;91.70
4501;DHT22;2263;54.654;9.410;2022-11-09T18:01:17;12.20;91.70
4501;DHT22;2263;54.654;9.410;2022-11-09T18:03:45;12.20;91.80
4501;DHT22;2263;54.654;9.410;2022-11-09T18:06:19;12.20;91.70
4501;DHT22;2263;54.654;9.410;2022-11-09T18:08:48;12.20;91.70
4501;DHT22;2263;54.654;9.410;2022-11-09T18:11:35;12.20;91.70
4501;DHT22;2263;54.654;9.410;2022-11-09T18:14:03;12.20;91.80
4501;DHT22;2263;54.654;9.410;2022-11-09T18:16:30;12.20;91.80